Time;durP1;ratioP1;P1;durP2;ratioP2;P2;SDS_P1;SDS_P2;PMS_P1;PMS_P2;Temp;Humidity;BMP_temperature;BMP_pressure;BME280_temperature;BME280_humidity;BME280_pressure;Samples;Min_cycle;Max_cycle;Signal;HPM_P1;HPM_P2
2021/05/30 00:00:48;;;;;;;3.20;1.15;;;;;;;12.21;100.00;100184.55;1733074;82;21618;-82
2021/05/30 00:03:14;;;;;;;1.75;1.12;;;;;;;12.15;100.00;100174.79;1733217;81;21051;-81
2021/05/30 00:05:41;;;;;;;1.52;1.42;;;;;;;12.11;100.00;100168.83;1733085;82;21025;-82
2021/05/30 00:08:08;;;;;;;1.57;1.27;;;;;;;12.08;100.00;100173.54;1712077;82;21583;-81
2021/05/30 00:10:36;;;;;;;1.80;1.10;;;;;;;12.02;100.00;100173.61;1733237;81;21428;-81
2021/05/30 00:13:05;;;;;;;1.15;1.02;;;;;;;12.00;100.00;100169.55;1733043;81;21646;-81
2021/05/30 00:15:33;;;;;;;3.00;1.55;;;;;;;11.96;100.00;100160.28;1732950;82;21543;-81
2021/05/30 00:18:00;;;;;;;2.12;1.30;;;;;;;11.92;100.00;100166.08;1732757;82;21010;-82
2021/05/30 00:20:26;;;;;;;1.77;1.05;;;;;;;11.89;100.00;100164.74;1732738;81;21780;-82
2021/05/30 00:22:55;;;;;;;1.57;1.40;;;;;;;11.86;100.00;100168.61;1732919;81;21031;-81
2021/05/30 00:25:21;;;;;;;1.40;1.15;;;;;;;11.82;100.00;100172.50;1732774;82;21101;-81
2021/05/30 00:27:48;;;;;;;2.10;1.87;;;;;;;11.80;100.00;100171.98;1733507;81;21528;-82
2021/05/30 00:30:16;;;;;;;2.00;1.85;;;;;;;11.78;100.00;100171.45;1732939;81;21562;-82
2021/05/30 00:32:43;;;;;;;1.90;1.15;;;;;;;11.74;100.00;100169.03;1733189;82;21042;-81
2021/05/30 00:35:10;;;;;;;1.80;1.32;;;;;;;11.70;100.00;100175.66;1733299;82;21026;-82
2021/05/30 00:37:37;;;;;;;1.77;1.57;;;;;;;11.68;100.00;100172.95;1732659;82;21030;-82
2021/05/30 00:40:04;;;;;;;0.98;0.93;;;;;;;11.66;100.00;100175.16;1711883;82;21062;-82
2021/05/30 00:42:31;;;;;;;0.95;0.95;;;;;;;11.64;100.00;100172.71;1732803;81;21150;-81
2021/05/30 00:44:58;;;;;;;2.87;1.77;;;;;;;11.63;100.00;100177.38;1733039;82;21046;-82
2021/05/30 00:47:25;;;;;;;2.35;1.37;;;;;;;11.63;100.00;100176.01;1733099;82;21101;-82
2021/05/30 00:49:51;;;;;;;1.20;1.07;;;;;;;11.64;100.00;100186.39;1733945;81;21042;-82
2021/05/30 00:52:18;;;;;;;0.90;0.85;;;;;;;11.63;100.00;100182.85;1711888;82;21034;-81
2021/05/30 00:54:46;;;;;;;3.52;2.08;;;;;;;11.63;100.00;100185.59;1734905;82;21030;-82
2021/05/30 00:57:13;;;;;;;0.95;0.90;;;;;;;11.63;100.00;100182.85;1718963;81;21066;-81
2021/05/30 00:59:41;;;;;;;2.25;0.90;;;;;;;11.62;100.00;100184.50;1732896;82;21042;-81
2021/05/30 01:02:07;;;;;;;1.77;1.67;;;;;;;11.60;100.00;100189.48;1670166;84;21078;-82
2021/05/30 01:04:34;;;;;;;1.17;0.93;;;;;;;11.58;100.00;100180.73;1656887;85;21595;-82
2021/05/30 01:07:03;;;;;;;1.30;1.17;;;;;;;11.53;100.00;100182.98;1667447;85;21062;-81
2021/05/30 01:09:33;;;;;;;1.92;1.82;;;;;;;11.50;100.00;100178.09;1656561;85;21099;-81
2021/05/30 01:11:59;;;;;;;1.20;0.62;;;;;;;11.47;100.00;100179.22;1683451;85;21018;-81
2021/05/30 01:14:26;;;;;;;1.85;1.62;;;;;;;11.43;100.00;100183.11;1719462;81;20987;-82
2021/05/30 01:16:55;;;;;;;2.47;1.20;;;;;;;11.39;100.00;100180.68;1733275;81;21053;-82
2021/05/30 01:19:21;;;;;;;4.10;1.60;;;;;;;11.34;100.00;100179.37;1718978;82;21027;-81
2021/05/30 01:21:49;;;;;;;3.50;1.42;;;;;;;11.32;100.00;100188.42;1733230;81;21049;-82
2021/05/30 01:24:16;;;;;;;1.10;1.00;;;;;;;11.28;100.00;100186.83;1732662;82;21034;-82
2021/05/30 01:26:43;;;;;;;1.77;1.25;;;;;;;11.25;100.00;100192.05;1732713;82;21046;-81
2021/05/30 01:29:10;;;;;;;1.27;0.95;;;;;;;11.24;100.00;100189.06;1732946;82;21046;-81
2021/05/30 01:31:39;;;;;;;1.77;1.45;;;;;;;11.20;100.00;100183.34;1732788;82;21041;-82
2021/05/30 01:34:06;;;;;;;2.12;1.25;;;;;;;11.16;100.00;100179.02;1732958;81;21054;-81
2021/05/30 01:36:32;;;;;;;1.45;1.35;;;;;;;11.14;100.00;100183.14;1733477;82;21022;-82
2021/05/30 01:39:00;;;;;;;1.95;1.60;;;;;;;11.11;100.00;100181.80;1734017;82;21010;-82
2021/05/30 01:41:27;;;;;;;3.67;1.77;;;;;;;11.07;100.00;100178.01;1732765;81;21053;-82
2021/05/30 01:43:54;;;;;;;2.08;1.75;;;;;;;11.04;100.00;100182.70;1732561;82;21027;-81
2021/05/30 01:46:20;;;;;;;1.07;0.98;;;;;;;11.04;100.00;100182.70;1732929;81;21546;-81
2021/05/30 01:48:47;;;;;;;2.62;2.10;;;;;;;11.06;100.00;100180.50;1733176;82;21066;-82
2021/05/30 01:51:14;;;;;;;1.30;0.95;;;;;;;11.07;100.00;100184.84;1732984;82;21043;-81
2021/05/30 01:54:05;;;;;;;1.92;1.82;;;;;;;11.09;100.00;100181.27;1732769;81;21050;-81
2021/05/30 01:59:08;;;;;;;1.30;1.20;;;;;;;11.09;100.00;100179.91;1721086;81;21082;-81
2021/05/30 02:01:35;;;;;;;1.87;1.77;;;;;;;11.11;100.00;100178.27;1732683;81;21066;-81
2021/05/30 02:04:02;;;;;;;2.77;1.87;;;;;;;11.11;100.00;100174.97;1734266;81;21097;-82
2021/05/30 02:06:29;;;;;;;1.80;1.52;;;;;;;11.13;100.00;100182.34;1732489;82;21041;-81
2021/05/30 02:08:55;;;;;;;1.45;1.35;;;;;;;11.14;100.00;100187.25;1732946;81;21010;-82
2021/05/30 02:11:23;;;;;;;2.22;1.40;;;;;;;11.16;100.00;100185.86;1695057;82;21041;-81
2021/05/30 02:13:54;;;;;;;3.27;1.98;;;;;;;11.16;100.00;100183.12;1732633;82;21046;-81
2021/05/30 02:16:20;;;;;;;1.25;1.15;;;;;;;11.19;100.00;100192.10;1732811;82;21065;-81
2021/05/30 02:18:47;;;;;;;1.02;0.98;;;;;;;11.22;100.00;100189.90;1733085;81;21081;-82
2021/05/30 02:21:14;;;;;;;1.75;1.65;;;;;;;11.26;100.00;100197.23;1732728;82;21571;-82
2021/05/30 02:23:42;;;;;;;2.72;2.47;;;;;;;11.30;100.00;100192.83;1733032;81;21053;-82
2021/05/30 02:26:08;;;;;;;2.50;1.67;;;;;;;11.36;100.00;100192.21;1733199;82;21026;-83
2021/05/30 02:28:34;;;;;;;3.12;1.37;;;;;;;11.42;100.00;100195.14;1733728;82;21979;-82
2021/05/30 02:31:01;;;;;;;3.50;1.62;;;;;;;11.49;100.00;100201.08;1732557;82;21082;-82
2021/05/30 02:33:29;;;;;;;2.98;1.27;;;;;;;11.56;100.00;100202.91;1733383;82;21025;-82
2021/05/30 02:35:56;;;;;;;0.88;0.88;;;;;;;11.67;100.00;100204.16;1733311;82;21085;-82
2021/05/30 02:38:22;;;;;;;1.00;1.00;;;;;;;11.76;100.00;100201.03;1733105;81;21042;-82
2021/05/30 02:40:50;;;;;;;1.95;1.70;;;;;;;11.84;100.00;100205.31;1718713;82;21110;-82
2021/05/30 02:43:17;;;;;;;1.20;1.07;;;;;;;11.92;100.00;100198.40;1733001;82;21037;-82
2021/05/30 02:45:43;;;;;;;1.27;1.17;;;;;;;12.00;100.00;100205.14;1733345;82;21903;-82
2021/05/30 02:48:10;;;;;;;3.42;1.45;;;;;;;12.08;100.00;100207.77;1733115;81;21090;-82
2021/05/30 02:50:36;;;;;;;2.65;1.57;;;;;;;12.16;100.00;100207.09;1734304;82;21052;-82
2021/05/30 02:53:03;;;;;;;2.27;2.08;;;;;;;12.25;100.00;100203.96;1732831;81;21650;-82
2021/05/30 02:55:30;;;;;;;1.55;1.40;;;;;;;12.33;100.00;100205.22;1733127;81;21231;-82
2021/05/30 02:57:57;;;;;;;1.15;1.05;;;;;;;12.40;100.00;100202.91;1711508;82;21022;-82
2021/05/30 03:00:24;;;;;;;1.25;1.00;;;;;;;12.47;100.00;100211.02;1732603;82;21590;-82
2021/05/30 03:02:50;;;;;;;1.00;0.95;;;;;;;12.57;100.00;100207.87;1733308;82;21030;-82
2021/05/30 03:05:17;;;;;;;0.55;0.55;;;;;;;12.67;100.00;100210.44;1733888;81;21106;-82
2021/05/30 03:07:45;;;;;;;1.05;1.00;;;;;;;12.74;100.00;100205.39;1732315;82;21101;-82
2021/05/30 03:10:12;;;;;;;1.15;1.07;;;;;;;12.83;100.00;100206.87;1733816;81;21042;-82
2021/05/30 03:12:39;;;;;;;2.25;1.22;;;;;;;12.93;100.00;100208.62;1732530;82;21623;-82
2021/05/30 03:15:07;;;;;;;1.00;0.82;;;;;;;13.02;100.00;100202.16;1732519;82;21002;-82
2021/05/30 03:17:35;;;;;;;1.22;1.17;;;;;;;13.14;100.00;100200.30;1732502;81;21045;-82
2021/05/30 03:20:04;;;;;;;0.90;0.90;;;;;;;13.26;100.00;100202.00;1711950;82;21105;-82
2021/05/30 03:22:31;;;;;;;1.15;0.78;;;;;;;13.36;100.00;100190.61;1733650;81;21602;-82
2021/05/30 03:24:58;;;;;;;1.05;0.85;;;;;;;13.47;100.00;100189.27;1733165;82;21017;-82
2021/05/30 03:27:25;;;;;;;2.62;1.27;;;;;;;13.57;100.00;100194.55;1735036;82;21109;-82
2021/05/30 03:29:53;;;;;;;3.60;0.95;;;;;;;13.66;100.00;100192.73;1733070;81;21043;-82
2021/05/30 03:32:20;;;;;;;0.57;0.57;;;;;;;13.75;100.00;100199.13;1732634;81;21045;-83
2021/05/30 03:34:47;;;;;;;1.20;1.10;;;;;;;13.83;100.00;100198.16;1712212;82;21629;-82
2021/05/30 03:37:14;;;;;;;1.02;0.80;;;;;;;13.89;100.00;100201.04;1711828;82;21057;-82
2021/05/30 03:39:42;;;;;;;1.45;0.93;;;;;;;13.97;100.00;100203.05;1733340;82;21546;-82
2021/05/30 03:42:14;;;;;;;0.65;0.62;;;;;;;14.01;100.00;100205.45;1733102;82;21097;-82
2021/05/30 03:44:40;;;;;;;1.17;0.62;;;;;;;14.05;100.00;100213.33;1732883;81;21038;-82
2021/05/30 03:47:11;;;;;;;2.08;1.40;;;;;;;14.05;100.00;100214.70;1731530;82;21428;-82
2021/05/30 03:49:35;;;;;;;0.88;0.82;;;;;;;14.07;100.00;100213.84;1708535;82;21110;-82
2021/05/30 03:52:02;;;;;;;1.05;0.95;;;;;;;14.11;100.00;100205.78;1708696;82;21049;-82
2021/05/30 03:54:29;;;;;;;1.30;1.20;;;;;;;14.18;100.00;100204.80;1706365;83;21094;-82
2021/05/30 03:56:55;;;;;;;1.15;1.05;;;;;;;14.24;100.00;100199.99;1707632;83;21010;-82
2021/05/30 03:59:22;;;;;;;0.90;0.60;;;;;;;14.29;100.00;100197.13;1708771;83;21045;-82
2021/05/30 04:01:49;;;;;;;1.40;1.27;;;;;;;14.32;100.00;100195.96;1706907;83;21062;-82
2021/05/30 04:04:15;;;;;;;1.45;1.35;;;;;;;14.38;100.00;100200.20;1706250;82;21603;-82
2021/05/30 04:06:42;;;;;;;2.30;1.40;;;;;;;14.43;100.00;100198.47;1706433;83;21049;-82
2021/05/30 04:09:09;;;;;;;3.85;0.95;;;;;;;14.47;100.00;100203.03;1708684;82;21680;-82
2021/05/30 04:11:35;;;;;;;4.03;0.78;;;;;;;14.51;100.00;100212.27;1709353;83;21021;-82
2021/05/30 04:14:02;;;;;;;1.32;1.22;;;;;;;14.54;100.00;100204.82;1707058;83;20975;-82
2021/05/30 04:16:28;;;;;;;1.45;1.17;;;;;;;14.62;100.00;100207.38;1709217;82;21077;-82
2021/05/30 04:18:55;;;;;;;2.83;1.47;;;;;;;14.67;100.00;100210.58;1707106;83;21073;-82
2021/05/30 04:21:22;;;;;;;0.80;0.80;;;;;;;14.71;100.00;100217.05;1707747;83;21049;-82
2021/05/30 04:23:50;;;;;;;0.70;0.70;;;;;;;14.69;100.00;100217.92;1708105;83;21615;-82
2021/05/30 04:26:17;;;;;;;1.35;0.93;;;;;;;14.70;100.00;100212.69;1708406;82;21069;-82
2021/05/30 04:28:45;;;;;;;0.90;0.65;;;;;;;14.73;100.00;100225.81;1721495;81;21018;-82
2021/05/30 04:31:12;;;;;;;0.88;0.35;;;;;;;14.80;100.00;100222.87;1676314;83;21097;-81
2021/05/30 04:33:39;;;;;;;0.70;0.60;;;;;;;14.94;100.00;100217.31;1704940;82;21638;-82
2021/05/30 04:36:06;;;;;;;0.40;0.40;;;;;;;15.11;98.26;100223.48;1708951;82;21077;-82
2021/05/30 04:38:33;;;;;;;0.30;0.30;;;;;;;15.24;95.55;100223.95;1724221;82;21003;-82
2021/05/30 04:41:00;;;;;;;0.42;0.42;;;;;;;15.39;94.56;100222.72;1705361;83;21589;-82
2021/05/30 04:43:27;;;;;;;0.70;0.35;;;;;;;15.53;93.80;100230.05;1706581;83;21053;-82
2021/05/30 04:45:53;;;;;;;0.47;0.47;;;;;;;15.60;92.77;100228.49;1709106;83;21049;-82
2021/05/30 04:48:20;;;;;;;0.70;0.50;;;;;;;15.66;91.27;100232.71;1718276;82;21023;-81
2021/05/30 04:51:06;;;;;;;0.10;0.10;;;;;;;15.73;90.46;100232.86;1732474;82;21057;-82
2021/05/30 04:53:40;;;;;;;0.40;0.40;;;;;;;15.85;89.58;100231.66;1732679;82;21614;-82
2021/05/30 04:56:07;;;;;;;1.25;0.30;;;;;;;16.01;89.42;100226.52;1732739;82;21595;-82
2021/05/30 04:58:34;;;;;;;0.33;0.30;;;;;;;16.17;88.37;100226.31;1732687;82;21050;-82
2021/05/30 05:01:02;;;;;;;0.30;0.30;;;;;;;16.24;86.57;100228.00;1733516;82;21026;-82
2021/05/30 05:03:34;;;;;;;0.42;0.40;;;;;;;16.33;84.82;100237.67;1732692;82;21610;-82
2021/05/30 05:06:00;;;;;;;0.47;0.47;;;;;;;16.43;84.16;100239.30;1732738;81;21563;-82
2021/05/30 05:08:28;;;;;;;0.40;0.40;;;;;;;16.57;82.10;100239.96;1732532;82;21014;-82
2021/05/30 05:10:55;;;;;;;0.47;0.47;;;;;;;16.60;79.82;100247.58;1648481;85;21082;-82
2021/05/30 05:13:23;;;;;;;0.30;0.30;;;;;;;16.56;78.98;100245.22;1668192;84;21068;-82
2021/05/30 05:15:51;;;;;;;0.50;0.50;;;;;;;16.62;80.18;100248.07;1731623;82;21804;-81
2021/05/30 05:18:20;;;;;;;1.10;0.50;;;;;;;16.72;79.97;100242.22;1732738;82;21101;-82
2021/05/30 05:20:49;;;;;;;0.28;0.28;;;;;;;16.86;81.07;100239.30;1732689;82;21094;-82
2021/05/30 05:23:18;;;;;;;1.30;0.47;;;;;;;17.02;80.66;100232.71;1732683;82;21622;-82
2021/05/30 05:25:49;;;;;;;0.33;0.30;;;;;;;17.10;79.37;100218.07;1732662;82;21010;-81
2021/05/30 05:28:16;;;;;;;0.20;0.20;;;;;;;17.14;77.85;100228.70;1712555;82;21026;-83
2021/05/30 05:30:42;;;;;;;0.40;0.40;;;;;;;17.20;76.38;100228.76;1732741;82;21078;-83
2021/05/30 05:33:11;;;;;;;0.20;0.20;;;;;;;17.31;77.79;100225.63;1732599;82;21129;-82
2021/05/30 05:35:38;;;;;;;1.12;0.50;;;;;;;17.41;77.49;100230.83;1732831;82;21537;-82
2021/05/30 05:38:05;;;;;;;0.30;0.30;;;;;;;17.54;77.61;100234.51;1732681;82;21375;-82
2021/05/30 05:40:31;;;;;;;0.30;0.30;;;;;;;17.70;76.52;100237.52;1732536;82;21153;-82
2021/05/30 05:42:59;;;;;;;0.23;0.23;;;;;;;17.91;76.05;100238.99;1732704;82;21046;-82
2021/05/30 05:45:26;;;;;;;0.72;0.57;;;;;;;18.10;75.12;100235.77;1732551;82;21037;-82
2021/05/30 05:47:53;;;;;;;0.55;0.55;;;;;;;18.25;73.21;100243.50;1732673;82;21042;-82
2021/05/30 05:50:21;;;;;;;0.72;0.40;;;;;;;18.29;71.87;100248.58;1732886;81;21026;-82
2021/05/30 05:52:48;;;;;;;0.42;0.42;;;;;;;18.22;70.03;100244.14;1733077;81;21110;-82
2021/05/30 05:55:15;;;;;;;0.95;0.45;;;;;;;18.09;69.66;100241.08;1732769;82;21032;-83
2021/05/30 05:57:42;;;;;;;0.70;0.70;;;;;;;17.93;70.01;100240.28;1735402;81;21035;-82
2021/05/30 06:00:11;;;;;;;0.30;0.30;;;;;;;17.79;69.75;100253.48;1733224;81;21058;-82
2021/05/30 06:02:39;;;;;;;0.20;0.20;;;;;;;17.64;70.51;100256.23;1732746;82;21049;-82
2021/05/30 06:05:08;;;;;;;0.23;0.23;;;;;;;17.49;70.82;100263.12;1732396;82;21062;-82
2021/05/30 06:07:36;;;;;;;1.00;0.40;;;;;;;17.44;71.85;100256.97;1732582;81;21034;-82
2021/05/30 06:10:04;;;;;;;0.33;0.30;;;;;;;17.38;71.44;100266.82;1733005;82;21054;-82
2021/05/30 06:12:30;;;;;;;0.55;0.55;;;;;;;17.31;71.81;100260.16;1733398;81;21026;-82
2021/05/30 06:14:57;;;;;;;0.28;0.25;;;;;;;17.26;72.61;100258.95;1732711;82;21544;-82
2021/05/30 06:17:24;;;;;;;1.20;0.50;;;;;;;17.22;72.80;100255.25;1733038;81;21042;-82
2021/05/30 06:19:51;;;;;;;0.15;0.15;;;;;;;17.26;73.64;100258.95;1732872;81;21097;-82
2021/05/30 06:22:18;;;;;;;0.60;0.60;;;;;;;17.37;74.18;100258.85;1732786;82;21010;-82
2021/05/30 06:24:45;;;;;;;0.78;0.78;;;;;;;17.52;73.09;100258.30;1733195;82;21054;-82
2021/05/30 06:27:11;;;;;;;0.33;0.33;;;;;;;17.68;72.93;100260.52;1732705;81;21041;-82
2021/05/30 06:29:38;;;;;;;0.30;0.30;;;;;;;17.86;73.30;100261.30;1733027;82;21081;-82
2021/05/30 06:32:05;;;;;;;0.95;0.50;;;;;;;18.04;72.14;100270.52;1732493;82;21066;-81
2021/05/30 06:34:32;;;;;;;1.52;0.65;;;;;;;18.09;71.61;100271.48;1732845;82;21078;-82
2021/05/30 06:37:00;;;;;;;0.75;0.75;;;;;;;18.11;71.35;100283.03;1732678;81;21425;-82
2021/05/30 06:39:27;;;;;;;0.42;0.42;;;;;;;18.15;70.99;100279.81;1732746;82;21038;-81
2021/05/30 06:41:54;;;;;;;0.30;0.30;;;;;;;18.26;71.36;100283.25;1688489;82;21058;-83
2021/05/30 06:44:20;;;;;;;0.80;0.70;;;;;;;18.40;72.06;100273.91;1732861;82;21594;-82
2021/05/30 06:46:47;;;;;;;0.62;0.40;;;;;;;18.53;69.39;100285.27;1712924;82;21038;-82
2021/05/30 06:49:13;;;;;;;0.37;0.33;;;;;;;18.63;69.42;100274.37;1734756;82;21038;-82
2021/05/30 06:51:40;;;;;;;0.45;0.20;;;;;;;18.71;69.18;100283.17;1732510;82;21075;-81
2021/05/30 06:54:07;;;;;;;0.65;0.35;;;;;;;18.80;70.21;100274.25;1732943;82;21058;-82
2021/05/30 06:56:33;;;;;;;0.50;0.50;;;;;;;18.97;68.33;100282.18;1732667;81;21078;-81
2021/05/30 06:59:00;;;;;;;0.30;0.30;;;;;;;18.95;66.79;100277.55;1733598;81;21034;-81
2021/05/30 07:01:26;;;;;;;0.42;0.25;;;;;;;18.81;66.65;100280.02;1671653;85;21677;-82
2021/05/30 07:03:53;;;;;;;0.50;0.40;;;;;;;18.64;66.86;100278.75;1657342;85;21027;-82
2021/05/30 07:06:19;;;;;;;0.72;0.50;;;;;;;18.54;67.44;100276.39;1670580;85;21045;-82
2021/05/30 07:08:46;;;;;;;0.33;0.23;;;;;;;18.56;68.71;100275.48;1732756;82;21050;-82
2021/05/30 07:11:13;;;;;;;0.93;0.50;;;;;;;18.61;67.43;100269.16;1733020;81;21089;-81
2021/05/30 07:13:41;;;;;;;0.15;0.15;;;;;;;18.61;67.73;100262.83;1733681;81;21066;-82
2021/05/30 07:16:07;;;;;;;0.93;0.62;;;;;;;18.67;68.64;100270.59;1732223;82;21037;-82
2021/05/30 07:18:34;;;;;;;0.47;0.40;;;;;;;18.82;67.94;100273.34;1732429;82;21078;-82
2021/05/30 07:21:01;;;;;;;0.40;0.40;;;;;;;18.88;67.83;100267.82;1732689;82;21027;-82
2021/05/30 07:23:27;;;;;;;0.50;0.30;;;;;;;18.93;67.45;100282.61;1732479;82;21078;-82
2021/05/30 07:25:54;;;;;;;0.57;0.40;;;;;;;18.88;66.63;100280.28;1732374;82;21042;-81
2021/05/30 07:28:21;;;;;;;1.95;0.60;;;;;;;18.93;68.60;100286.77;1733165;81;21038;-81
2021/05/30 07:30:48;;;;;;;0.75;0.30;;;;;;;19.18;66.96;100286.28;1733512;81;21094;-81
2021/05/30 07:33:15;;;;;;;0.40;0.40;;;;;;;19.40;66.07;100297.54;1732678;81;21037;-82
2021/05/30 07:35:42;;;;;;;0.82;0.45;;;;;;;19.43;65.40;100298.23;1733202;81;21034;-82
2021/05/30 07:38:08;;;;;;;0.55;0.55;;;;;;;19.41;65.88;100293.61;1732589;82;21465;-81
2021/05/30 07:40:35;;;;;;;0.40;0.40;;;;;;;19.48;66.69;100304.94;1733806;82;21554;-81
2021/05/30 07:43:03;;;;;;;0.60;0.60;;;;;;;19.48;66.69;100304.94;1711129;82;39539;-81
2021/05/30 07:45:30;;;;;;;0.80;0.80;;;;;;;19.63;65.73;100305.66;1732662;82;21225;-81
2021/05/30 07:47:57;;;;;;;0.50;0.35;;;;;;;19.73;65.15;100302.50;1732548;82;21058;-81
2021/05/30 07:50:24;;;;;;;0.45;0.40;;;;;;;19.85;64.59;100312.77;1733861;81;21061;-82
2021/05/30 07:52:50;;;;;;;1.37;0.30;;;;;;;19.93;62.41;100313.80;1732702;82;20990;-82
2021/05/30 07:55:19;;;;;;;0.50;0.50;;;;;;;19.85;62.90;100318.89;1732776;81;21105;-82
2021/05/30 07:57:49;;;;;;;1.07;0.98;;;;;;;19.79;61.02;100321.09;1732940;81;21022;-82
2021/05/30 08:00:17;;;;;;;0.50;0.50;;;;;;;19.71;61.33;100326.97;1733892;81;21054;-82
2021/05/30 08:02:44;;;;;;;1.15;0.50;;;;;;;19.65;63.01;100326.11;1732495;82;21562;-82
2021/05/30 08:05:16;;;;;;;0.50;0.42;;;;;;;19.67;64.07;100323.26;1732713;82;21066;-81
2021/05/30 08:07:41;;;;;;;0.55;0.50;;;;;;;19.72;64.04;100315.30;1734415;81;21062;-83
2021/05/30 08:10:08;;;;;;;0.57;0.30;;;;;;;19.69;62.95;100310.45;1733801;82;21057;-81
2021/05/30 08:12:34;;;;;;;0.72;0.40;;;;;;;19.56;62.79;100316.52;1733077;81;21070;-82
2021/05/30 08:15:02;;;;;;;0.35;0.35;;;;;;;19.55;62.88;100313.50;1732436;81;21038;-81
2021/05/30 08:17:29;;;;;;;0.20;0.20;;;;;;;19.71;62.78;100310.34;1732636;82;21046;-82
2021/05/30 08:19:56;;;;;;;0.37;0.37;;;;;;;19.96;61.74;100324.23;1732576;82;21058;-82
2021/05/30 08:22:22;;;;;;;0.30;0.20;;;;;;;20.09;60.37;100328.61;1732543;82;21085;-82
2021/05/30 08:24:49;;;;;;;0.20;0.20;;;;;;;20.23;59.55;100323.28;1711625;82;21078;-82
2021/05/30 08:27:17;;;;;;;0.23;0.20;;;;;;;20.34;60.04;100322.47;1733238;82;21054;-81
2021/05/30 08:29:45;;;;;;;0.57;0.57;;;;;;;20.56;59.07;100321.20;1732861;82;21622;-81
2021/05/30 08:32:11;;;;;;;0.45;0.30;;;;;;;20.82;60.72;100318.58;1732943;82;21004;-81
2021/05/30 08:34:38;;;;;;;0.30;0.30;;;;;;;21.05;59.11;100325.22;1733093;82;21066;-82
2021/05/30 08:37:04;;;;;;;0.40;0.28;;;;;;;21.01;59.33;100329.86;1734469;81;20998;-82
2021/05/30 08:39:33;;;;;;;0.23;0.23;;;;;;;21.11;59.03;100331.92;1733859;81;21050;-82
2021/05/30 08:41:59;;;;;;;0.40;0.40;;;;;;;21.34;58.29;100326.03;1732800;82;21050;-81
2021/05/30 08:44:26;;;;;;;0.35;0.35;;;;;;;21.45;58.12;100320.78;1732549;82;21050;-81
2021/05/30 08:46:52;;;;;;;0.30;0.30;;;;;;;21.48;57.39;100326.43;1732486;82;21523;-82
2021/05/30 08:49:20;;;;;;;0.40;0.40;;;;;;;21.44;55.67;100325.55;1732742;82;21145;-81
2021/05/30 08:51:46;;;;;;;0.47;0.35;;;;;;;21.39;57.12;100331.36;1732668;81;21058;-82
2021/05/30 08:54:15;;;;;;;1.65;0.60;;;;;;;21.26;56.73;100338.09;1733154;82;21964;-82
2021/05/30 08:56:42;;;;;;;0.72;0.55;;;;;;;21.11;56.72;100343.03;1733135;81;21590;-82
2021/05/30 08:59:28;;;;;;;0.40;0.30;;;;;;;21.01;58.12;100347.11;1733736;82;21002;-81
2021/05/30 09:02:10;;;;;;;0.40;0.40;;;;;;;20.95;57.49;100342.39;1771468;79;21118;-81
2021/05/30 09:04:38;;;;;;;0.30;0.30;;;;;;;20.93;57.40;100347.48;1761348;80;21076;-82
2021/05/30 09:07:07;;;;;;;0.62;0.45;;;;;;;20.81;55.93;100347.52;1763144;81;21632;-82
2021/05/30 09:09:39;;;;;;;0.40;0.40;;;;;;;20.81;58.20;100347.52;1763209;81;21569;-81
2021/05/30 09:12:10;;;;;;;0.90;0.50;;;;;;;20.89;57.48;100345.77;1764938;80;21550;-82
2021/05/30 09:14:51;;;;;;;0.30;0.30;;;;;;;21.03;59.44;100351.16;1764769;81;20977;-81
2021/05/30 09:17:13;;;;;;;0.50;0.50;;;;;;;21.02;58.72;100352.91;1761865;81;21064;-82
2021/05/30 09:19:49;;;;;;;1.42;0.30;;;;;;;20.94;58.55;100354.64;1762876;79;21036;-82
2021/05/30 09:22:25;;;;;;;0.28;0.28;;;;;;;20.97;58.66;100358.72;1762761;81;21108;-83
2021/05/30 09:25:14;;;;;;;0.40;0.33;;;;;;;20.94;57.20;100356.04;1757818;79;21423;-82
2021/05/30 09:27:51;;;;;;;0.85;0.40;;;;;;;20.99;56.17;100360.54;1733374;81;21586;-83
2021/05/30 09:30:24;;;;;;;0.45;0.28;;;;;;;20.99;56.21;100355.81;1752905;81;21020;-83
2021/05/30 09:33:02;;;;;;;0.55;0.45;;;;;;;20.98;57.55;100360.33;1746689;80;21061;-83
2021/05/30 09:35:43;;;;;;;0.80;0.65;;;;;;;20.95;56.67;100359.06;1760849;81;21649;-83
2021/05/30 09:38:14;;;;;;;0.20;0.20;;;;;;;20.99;56.91;100359.98;1763558;80;21017;-83
2021/05/30 09:40:50;;;;;;;0.10;0.10;;;;;;;21.07;56.56;100362.94;1756144;80;21080;-84
2021/05/30 09:43:26;;;;;;;0.47;0.47;;;;;;;21.14;56.59;100365.93;1762114;80;21029;-84
2021/05/30 09:46:07;;;;;;;0.55;0.37;;;;;;;21.02;56.36;100362.05;1763551;80;21032;-83
2021/05/30 09:48:39;;;;;;;1.10;0.53;;;;;;;20.86;57.18;100363.94;1764379;80;21040;-84
2021/05/30 09:51:38;;;;;;;0.20;0.20;;;;;;;20.78;58.38;100362.11;1762539;80;21052;-84
2021/05/30 09:54:10;;;;;;;0.62;0.20;;;;;;;20.74;57.97;100359.80;1762941;80;21044;-84
2021/05/30 09:56:47;;;;;;;0.25;0.25;;;;;;;20.56;57.61;100368.39;1763059;80;21975;-83
2021/05/30 09:59:19;;;;;;;0.85;0.70;;;;;;;20.46;57.97;100363.28;1763099;80;21021;-83
2021/05/30 10:02:00;;;;;;;0.70;0.28;;;;;;;20.52;58.80;100366.04;1763131;80;21052;-83
2021/05/30 10:04:31;;;;;;;0.28;0.28;;;;;;;20.55;57.88;100368.17;1762909;80;21056;-84
2021/05/30 10:06:58;;;;;;;0.30;0.30;;;;;;;20.69;56.74;100360.04;1762990;81;21040;-83
2021/05/30 10:09:28;;;;;;;0.30;0.28;;;;;;;20.75;57.83;100363.63;1763056;80;21095;-83
2021/05/30 10:11:56;;;;;;;0.70;0.30;;;;;;;20.96;58.46;100353.72;1762847;81;21072;-83
2021/05/30 10:14:26;;;;;;;0.50;0.50;;;;;;;21.23;58.87;100351.31;1762738;81;21025;-83
2021/05/30 10:16:54;;;;;;;0.23;0.23;;;;;;;21.49;58.68;100349.50;1742638;81;20962;-83
2021/05/30 10:19:41;;;;;;;0.60;0.40;;;;;;;21.67;57.16;100351.36;1751155;80;21072;-83
2021/05/30 10:22:07;;;;;;;0.40;0.37;;;;;;;21.57;55.15;100350.50;1745953;81;21086;-84
2021/05/30 10:24:40;;;;;;;0.60;0.60;;;;;;;21.51;54.98;100350.52;1733564;82;21033;-84
2021/05/30 10:27:19;;;;;;;0.53;0.40;;;;;;;21.14;54.68;100355.65;1736267;82;21111;-83
2021/05/30 10:30:13;;;;;;;0.50;0.30;;;;;;;20.74;58.08;100350.88;1748223;81;21032;-83
2021/05/30 10:32:50;;;;;;;0.42;0.35;;;;;;;20.44;57.61;100353.10;1748047;82;21020;-83
2021/05/30 10:35:33;;;;;;;0.37;0.37;;;;;;;20.21;59.25;100354.16;1744062;81;21064;-84
2021/05/30 10:37:59;;;;;;;0.30;0.30;;;;;;;20.11;59.65;100355.44;1739271;80;21032;-83
2021/05/30 10:40:28;;;;;;;0.40;0.33;;;;;;;20.00;59.47;100350.09;1734786;82;21056;-82
2021/05/30 10:43:13;;;;;;;0.28;0.28;;;;;;;19.87;61.17;100362.34;1753822;81;21325;-82
2021/05/30 10:45:53;;;;;;;0.30;0.30;;;;;;;20.00;61.60;100358.41;1762739;80;21064;-82
2021/05/30 10:48:19;;;;;;;0.60;0.37;;;;;;;20.08;62.13;100358.91;1764042;80;21064;-82
2021/05/30 10:53:49;;;;;;;0.30;0.30;;;;;;;20.40;60.32;100372.43;1763547;80;21005;-82
2021/05/30 10:56:31;;;;;;;0.47;0.47;;;;;;;20.56;60.64;100371.16;1762189;80;21025;-82
2021/05/30 10:59:17;;;;;;;0.50;0.50;;;;;;;20.64;60.61;100369.41;1758295;81;21017;-82
2021/05/30 11:01:46;;;;;;;0.35;0.30;;;;;;;20.76;61.39;100371.37;1732655;82;21088;-81
2021/05/30 11:04:33;;;;;;;0.28;0.28;;;;;;;20.94;59.19;100369.92;1701250;83;21438;-82
2021/05/30 11:07:11;;;;;;;0.40;0.25;;;;;;;20.86;57.40;100377.83;1700707;83;21072;-82
2021/05/30 11:10:01;;;;;;;0.20;0.20;;;;;;;20.80;57.92;100382.02;1691736;82;21039;-84
2021/05/30 11:12:49;;;;;;;0.20;0.20;;;;;;;20.97;55.20;100392.05;1763681;81;21068;-83
2021/05/30 11:15:19;;;;;;;0.35;0.20;;;;;;;21.01;54.79;100388.19;1759562;80;21064;-84
2021/05/30 11:17:49;;;;;;;0.28;0.28;;;;;;;20.92;56.19;100381.16;1763368;80;21017;-84
2021/05/30 11:20:39;;;;;;;0.15;0.15;;;;;;;20.88;57.72;100378.88;1763347;80;21621;-83
2021/05/30 11:23:12;;;;;;;0.20;0.20;;;;;;;20.97;56.70;100381.74;1763384;81;21037;-84
2021/05/30 11:25:46;;;;;;;1.12;0.53;;;;;;;20.86;56.63;100375.05;1762780;81;21837;-86
2021/05/30 11:28:22;;;;;;;0.30;0.30;;;;;;;20.65;58.08;100372.44;1749342;81;21029;-89
2021/05/30 11:30:58;;;;;;;0.20;0.20;;;;;;;20.45;58.77;100376.11;1740851;81;21052;-84
2021/05/30 11:33:29;;;;;;;0.28;0.28;;;;;;;20.30;57.42;100374.84;1761146;80;21084;-84
2021/05/30 11:36:00;;;;;;;0.30;0.30;;;;;;;20.15;57.88;100372.18;1713941;82;21079;-86